Time;durP1;ratioP1;P1;durP2;ratioP2;P2;SDS_P1;SDS_P2;PMS_P1;PMS_P2;Temp;Humidity;BMP_temperature;BMP_pressure;BME280_temperature;BME280_humidity;BME280_pressure;Samples;Min_cycle;Max_cycle;Signal;HPM_P1;HPM_P2
2023/10/31 00:05:33;;;;;;;1.90;1.43;;;;;;;;;;21087828;28;20203;-66
2023/10/31 00:21:29;;;;;;;3.10;1.30;;;;;;;;;;20983992;28;20566;-66
2023/10/31 00:31:34;;;;;;;2.57;1.00;;;;;;;;;;20983208;28;20214;-66
2023/10/31 00:41:36;;;;;;;1.80;0.90;;;;;;;;;;20982334;28;20207;-66
2023/10/31 00:51:38;;;;;;;4.00;0.80;;;;;;;;;;20981267;28;20207;-65
2023/10/31 01:01:41;;;;;;;0.87;0.80;;;;;;;;;;20980554;28;20249;-66
2023/10/31 01:11:43;;;;;;;0.93;0.90;;;;;;;;;;20979279;28;20230;-67
2023/10/31 01:21:45;;;;;;;1.33;0.90;;;;;;;;;;20978938;28;20261;-66
2023/10/31 01:37:41;;;;;;;1.53;1.00;;;;;;;;;;20945195;28;20595;-66
2023/10/31 01:47:43;;;;;;;5.83;1.00;;;;;;;;;;20942317;28;20269;-64
2023/10/31 01:57:46;;;;;;;1.13;1.00;;;;;;;;;;20982807;28;20215;-65
2023/10/31 02:07:48;;;;;;;1.90;1.10;;;;;;;;;;20981401;28;20215;-65
2023/10/31 02:17:50;;;;;;;3.10;0.90;;;;;;;;;;20980860;28;20207;-65
2023/10/31 02:27:52;;;;;;;1.30;0.90;;;;;;;;;;20940494;28;20219;-64
2023/10/31 02:37:55;;;;;;;1.00;0.87;;;;;;;;;;20966191;28;20219;-66
2023/10/31 02:47:57;;;;;;;0.87;0.87;;;;;;;;;;20929475;28;20266;-65
2023/10/31 02:57:59;;;;;;;2.20;0.70;;;;;;;;;;20923128;28;20222;-66
2023/10/31 03:08:01;;;;;;;1.10;0.90;;;;;;;;;;20921947;28;20303;-65
2023/10/31 03:18:03;;;;;;;1.47;1.10;;;;;;;;;;20921302;28;20219;-66
2023/10/31 03:28:17;;;;;;;1.00;0.90;;;;;;;;;;20920446;28;20718;-63
2023/10/31 03:38:19;;;;;;;0.80;0.80;;;;;;;;;;20919736;28;20230;-65
2023/10/31 03:48:22;;;;;;;1.13;1.03;;;;;;;;;;20918810;28;20691;-65
2023/10/31 03:58:24;;;;;;;3.60;1.00;;;;;;;;;;20917275;28;20678;-64
2023/10/31 04:08:26;;;;;;;1.97;1.13;;;;;;;;;;20917039;28;20230;-65
2023/10/31 04:18:28;;;;;;;3.57;0.90;;;;;;;;;;20916183;28;20212;-64
2023/10/31 04:28:30;;;;;;;1.63;1.50;;;;;;;;;;20915757;28;20242;-65
2023/10/31 04:38:33;;;;;;;3.80;2.80;;;;;;;;;;20914804;28;20212;-66
2023/10/31 04:48:35;;;;;;;4.20;1.83;;;;;;;;;;20913930;28;20286;-65
2023/10/31 04:58:37;;;;;;;4.47;1.83;;;;;;;;;;20913848;28;20250;-65
2023/10/31 05:08:39;;;;;;;5.93;1.20;;;;;;;;;;20912469;28;20245;-65
2023/10/31 05:18:41;;;;;;;4.43;1.07;;;;;;;;;;20912376;28;20250;-66
2023/10/31 05:28:44;;;;;;;2.93;1.10;;;;;;;;;;20912024;28;20637;-66
2023/10/31 05:38:46;;;;;;;1.90;1.53;;;;;;;;;;20911372;28;20211;-66
2023/10/31 05:48:49;;;;;;;4.40;2.17;;;;;;;;;;20911012;28;20731;-65
2023/10/31 05:58:51;;;;;;;1.20;1.10;;;;;;;;;;20910955;28;20581;-63
2023/10/31 06:08:53;;;;;;;1.10;1.00;;;;;;;;;;20910276;28;20580;-66
2023/10/31 06:18:55;;;;;;;1.60;1.40;;;;;;;;;;20913277;28;20208;-64
2023/10/31 06:28:57;;;;;;;1.67;1.20;;;;;;;;;;20879415;28;20263;-65
2023/10/31 06:39:19;;;;;;;1.20;1.10;;;;;;;;;;20893835;28;20209;-67
2023/10/31 06:49:23;;;;;;;1.93;0.93;;;;;;;;;;20840457;28;20240;-68
2023/10/31 06:59:25;;;;;;;1.63;1.10;;;;;;;;;;20896773;28;20262;-66
2023/10/31 07:09:28;;;;;;;2.17;1.13;;;;;;;;;;20921955;28;20326;-66
2023/10/31 07:19:30;;;;;;;2.77;1.03;;;;;;;;;;20920592;28;20208;-66
2023/10/31 07:29:32;;;;;;;3.50;1.13;;;;;;;;;;20896703;28;20338;-65
2023/10/31 07:42:04;;;;;;;1.23;0.90;;;;;;;;;;20983808;28;21103;-67
2023/10/31 07:52:06;;;;;;;3.37;0.80;;;;;;;;;;20982845;28;20309;-65
2023/10/31 08:02:08;;;;;;;1.50;1.13;;;;;;;;;;20982224;28;20685;-67
2023/10/31 08:12:10;;;;;;;1.90;1.30;;;;;;;;;;20981552;28;20654;-66
2023/10/31 08:22:13;;;;;;;2.33;1.17;;;;;;;;;;20980418;28;20301;-65
2023/10/31 08:32:16;;;;;;;1.40;1.10;;;;;;;;;;21025504;28;20229;-65
2023/10/31 08:42:18;;;;;;;2.20;1.10;;;;;;;;;;21063065;28;20407;-67
2023/10/31 08:52:22;;;;;;;2.60;1.10;;;;;;;;;;21012240;28;20207;-66
2023/10/31 09:02:24;;;;;;;1.60;1.13;;;;;;;;;;20992501;28;20221;-67
2023/10/31 09:12:26;;;;;;;1.20;1.10;;;;;;;;;;20969041;28;20210;-67
2023/10/31 09:22:30;;;;;;;1.27;0.97;;;;;;;;;;20951375;28;20204;-67
2023/10/31 09:32:32;;;;;;;0.90;0.90;;;;;;;;;;20919706;28;20237;-67
2023/10/31 09:42:35;;;;;;;2.77;1.20;;;;;;;;;;20995928;28;20203;-66
2023/10/31 09:52:37;;;;;;;1.40;1.10;;;;;;;;;;21001431;28;20657;-66
2023/10/31 10:02:39;;;;;;;1.10;1.00;;;;;;;;;;20999565;28;20211;-65
2023/10/31 10:12:43;;;;;;;1.23;1.00;;;;;;;;;;20956208;28;20228;-68
2023/10/31 10:22:45;;;;;;;2.53;1.47;;;;;;;;;;20916172;28;20652;-66
2023/10/31 10:32:51;;;;;;;1.30;1.20;;;;;;;;;;20915019;28;20246;-70
2023/10/31 10:42:57;;;;;;;1.80;1.20;;;;;;;;;;20914854;28;20209;-66
2023/10/31 10:53:18;;;;;;;2.07;1.33;;;;;;;;;;20913867;28;20626;-65
2023/10/31 11:03:21;;;;;;;2.03;1.30;;;;;;;;;;20913210;28;20212;-67
2023/10/31 11:13:23;;;;;;;3.50;1.47;;;;;;;;;;20960571;28;20253;-68
2023/10/31 11:23:27;;;;;;;3.63;1.47;;;;;;;;;;20993439;28;20612;-68
2023/10/31 11:33:30;;;;;;;4.03;1.30;;;;;;;;;;20992306;28;20263;-67
2023/10/31 11:43:37;;;;;;;4.90;1.50;;;;;;;;;;20993001;28;20203;-66
2023/10/31 11:53:39;;;;;;;4.57;1.90;;;;;;;;;;20992891;28;20230;-66
2023/10/31 12:03:43;;;;;;;1.87;1.20;;;;;;;;;;20993431;28;20615;-66
2023/10/31 12:13:59;;;;;;;3.13;1.27;;;;;;;;;;20993222;28;20584;-66
2023/10/31 12:24:03;;;;;;;2.77;1.17;;;;;;;;;;21000421;28;20207;-67
2023/10/31 12:34:05;;;;;;;4.77;1.07;;;;;;;;;;21006503;28;20239;-67
2023/10/31 12:44:10;;;;;;;3.37;1.40;;;;;;;;;;21006562;28;20207;-66
2023/10/31 12:54:12;;;;;;;4.93;3.03;;;;;;;;;;21005981;28;20274;-67
2023/10/31 13:04:25;;;;;;;4.07;2.50;;;;;;;;;;21005108;28;20290;-67
2023/10/31 13:14:28;;;;;;;2.93;1.13;;;;;;;;;;21004774;28;20313;-67
2023/10/31 13:24:31;;;;;;;6.83;1.50;;;;;;;;;;21003738;28;20261;-66
2023/10/31 13:34:33;;;;;;;5.00;1.20;;;;;;;;;;21002624;28;20247;-66
2023/10/31 13:44:35;;;;;;;6.93;1.20;;;;;;;;;;21002651;28;20291;-66
2023/10/31 13:54:37;;;;;;;3.70;1.20;;;;;;;;;;21001110;28;20235;-67
2023/10/31 14:04:39;;;;;;;3.87;1.20;;;;;;;;;;21000154;28;20684;-67
2023/10/31 14:14:42;;;;;;;3.07;1.60;;;;;;;;;;20999526;28;20645;-68
2023/10/31 14:24:44;;;;;;;7.90;1.87;;;;;;;;;;20997443;28;20675;-66
2023/10/31 14:34:47;;;;;;;1.77;1.20;;;;;;;;;;20997430;28;20397;-68
2023/10/31 14:44:49;;;;;;;4.83;1.57;;;;;;;;;;20997241;28;20282;-68
2023/10/31 14:54:51;;;;;;;4.50;1.37;;;;;;;;;;20996861;28;20690;-68
2023/10/31 15:04:53;;;;;;;4.17;1.57;;;;;;;;;;20996037;28;20303;-67
2023/10/31 15:14:55;;;;;;;5.63;1.60;;;;;;;;;;20995545;28;20262;-67
2023/10/31 15:24:58;;;;;;;3.13;1.50;;;;;;;;;;20995671;28;20286;-66
2023/10/31 15:35:00;;;;;;;6.33;1.40;;;;;;;;;;20994682;28;20244;-66
2023/10/31 15:45:03;;;;;;;2.37;1.47;;;;;;;;;;20994602;28;20207;-66
2023/10/31 15:55:05;;;;;;;3.07;1.40;;;;;;;;;;20996253;28;20615;-68
2023/10/31 16:05:07;;;;;;;3.50;1.70;;;;;;;;;;21010186;28;20217;-68
2023/10/31 16:15:10;;;;;;;6.83;2.10;;;;;;;;;;21009375;28;20698;-68
2023/10/31 16:25:14;;;;;;;7.47;2.83;;;;;;;;;;21008614;28;20304;-69
2023/10/31 16:35:16;;;;;;;4.67;2.80;;;;;;;;;;21007303;28;20253;-68
2023/10/31 16:45:18;;;;;;;7.43;2.10;;;;;;;;;;21006978;28;20254;-68
2023/10/31 16:55:20;;;;;;;2.90;1.80;;;;;;;;;;21006582;28;20231;-68
2023/10/31 17:05:23;;;;;;;4.50;2.10;;;;;;;;;;21005109;28;20299;-68
2023/10/31 17:15:26;;;;;;;3.60;1.90;;;;;;;;;;21004804;28;20245;-68
2023/10/31 17:25:28;;;;;;;5.17;2.07;;;;;;;;;;21004435;28;20302;-68
2023/10/31 17:35:30;;;;;;;7.37;2.10;;;;;;;;;;21003023;28;20278;-68
2023/10/31 17:45:32;;;;;;;4.40;1.90;;;;;;;;;;21002357;28;20248;-68
2023/10/31 17:55:34;;;;;;;3.60;2.00;;;;;;;;;;21001860;28;20237;-68
2023/10/31 18:05:36;;;;;;;2.60;1.70;;;;;;;;;;21001036;28;20650;-66
2023/10/31 18:15:39;;;;;;;3.60;1.73;;;;;;;;;;21000069;28;20261;-66
2023/10/31 18:25:41;;;;;;;3.37;2.07;;;;;;;;;;20998760;28;20207;-66
2023/10/31 18:35:43;;;;;;;6.63;2.30;;;;;;;;;;20998120;28;20251;-69
2023/10/31 18:45:45;;;;;;;2.73;1.80;;;;;;;;;;20997404;28;20704;-67
2023/10/31 18:55:47;;;;;;;6.33;2.93;;;;;;;;;;20997039;28;20269;-66
2023/10/31 19:05:50;;;;;;;4.43;1.63;;;;;;;;;;20996505;28;20207;-69
2023/10/31 19:15:52;;;;;;;3.50;1.40;;;;;;;;;;20995869;28;20243;-68
2023/10/31 19:25:54;;;;;;;2.53;1.80;;;;;;;;;;20995663;28;20269;-66
2023/10/31 19:35:56;;;;;;;3.20;1.40;;;;;;;;;;20994270;28;20340;-67
2023/10/31 19:46:01;;;;;;;2.93;1.73;;;;;;;;;;20994370;28;20291;-66
2023/10/31 19:56:04;;;;;;;5.17;1.90;;;;;;;;;;20994310;28;20258;-66
2023/10/31 20:06:08;;;;;;;2.10;1.60;;;;;;;;;;20993610;28;20199;-66
2023/10/31 20:16:10;;;;;;;3.57;2.30;;;;;;;;;;20993096;28;20233;-66
2023/10/31 20:26:18;;;;;;;2.53;1.60;;;;;;;;;;20993265;28;20215;-69
2023/10/31 20:36:20;;;;;;;4.77;2.20;;;;;;;;;;20992065;28;20618;-66
2023/10/31 20:46:22;;;;;;;5.03;1.60;;;;;;;;;;21000475;28;20204;-67
2023/10/31 20:56:27;;;;;;;3.83;1.70;;;;;;;;;;21006401;28;20241;-66
2023/10/31 21:06:32;;;;;;;3.43;1.87;;;;;;;;;;21005331;28;20211;-66
2023/10/31 21:16:34;;;;;;;4.50;2.00;;;;;;;;;;21004268;28;20238;-66
2023/10/31 21:26:37;;;;;;;2.03;1.43;;;;;;;;;;21004291;28;20207;-67
2023/10/31 21:36:39;;;;;;;3.43;1.70;;;;;;;;;;21002609;28;20235;-67
2023/10/31 21:46:43;;;;;;;3.63;1.67;;;;;;;;;;21002313;28;20211;-67
2023/10/31 21:56:46;;;;;;;2.57;1.60;;;;;;;;;;21001555;28;20286;-67
2023/10/31 22:06:48;;;;;;;3.13;1.80;;;;;;;;;;20998240;28;20211;-67
2023/10/31 22:16:50;;;;;;;2.67;1.63;;;;;;;;;;20997606;28;20245;-68
2023/10/31 22:26:55;;;;;;;3.17;1.97;;;;;;;;;;20998028;28;20298;-69
2023/10/31 22:36:57;;;;;;;3.03;1.80;;;;;;;;;;20998165;28;20278;-70
2023/10/31 22:46:59;;;;;;;3.70;1.90;;;;;;;;;;20997491;28;20207;-67
2023/10/31 22:57:01;;;;;;;5.10;1.97;;;;;;;;;;20996959;28;20328;-67
2023/10/31 23:07:03;;;;;;;6.13;1.73;;;;;;;;;;20995793;28;20302;-69
2023/10/31 23:17:05;;;;;;;1.73;1.60;;;;;;;;;;20995517;28;20266;-68
2023/10/31 23:27:08;;;;;;;3.73;1.80;;;;;;;;;;20995387;28;20239;-68
2023/10/31 23:37:10;;;;;;;4.43;2.00;;;;;;;;;;20994733;28;20330;-67
2023/10/31 23:47:12;;;;;;;4.97;1.90;;;;;;;;;;20994610;28;20302;-68
